sensor_id;sensor_type;location;lat;lon;timestamp;P1;durP1;ratioP1;P2;durP2;ratioP2
24090;SDS011;12272;52.426;17.100;2022-07-06T00:01:19;12.25;;;3.45;;
24090;SDS011;12272;52.426;17.100;2022-07-06T00:06:22;6.65;;;2.75;;
24090;SDS011;12272;52.426;17.100;2022-07-06T00:11:25;4.05;;;3.47;;
24090;SDS011;12272;52.426;17.100;2022-07-06T00:16:28;8.00;;;2.72;;
24090;SDS011;12272;52.426;17.100;2022-07-06T00:21:31;12.63;;;3.35;;
24090;SDS011;12272;52.426;17.100;2022-07-06T00:26:33;8.75;;;2.92;;
24090;SDS011;12272;52.426;17.100;2022-07-06T00:31:36;4.00;;;2.53;;
24090;SDS011;12272;52.426;17.100;2022-07-06T00:36:38;10.15;;;2.85;;
24090;SDS011;12272;52.426;17.100;2022-07-06T00:41:41;4.65;;;3.13;;
24090;SDS011;12272;52.426;17.100;2022-07-06T00:46:43;4.65;;;3.20;;
24090;SDS011;12272;52.426;17.100;2022-07-06T00:51:46;5.43;;;2.67;;
24090;SDS011;12272;52.426;17.100;2022-07-06T00:56:49;4.80;;;2.70;;
24090;SDS011;12272;52.426;17.100;2022-07-06T01:01:51;3.17;;;2.50;;
24090;SDS011;12272;52.426;17.100;2022-07-06T01:06:54;5.95;;;3.58;;
24090;SDS011;12272;52.426;17.100;2022-07-06T01:11:58;10.85;;;3.20;;
24090;SDS011;12272;52.426;17.100;2022-07-06T01:17:01;4.78;;;3.42;;
24090;SDS011;12272;52.426;17.100;2022-07-06T01:22:03;4.00;;;3.13;;
24090;SDS011;12272;52.426;17.100;2022-07-06T01:27:06;5.68;;;3.30;;
24090;SDS011;12272;52.426;17.100;2022-07-06T01:32:09;7.57;;;2.88;;
24090;SDS011;12272;52.426;17.100;2022-07-06T01:37:12;6.25;;;2.83;;
24090;SDS011;12272;52.426;17.100;2022-07-06T01:42:14;3.67;;;3.38;;
24090;SDS011;12272;52.426;17.100;2022-07-06T01:47:19;4.28;;;3.20;;
24090;SDS011;12272;52.426;17.100;2022-07-06T01:52:25;6.63;;;3.05;;
24090;SDS011;12272;52.426;17.100;2022-07-06T01:57:28;3.95;;;3.50;;
24090;SDS011;12272;52.426;17.100;2022-07-06T02:02:31;4.78;;;3.85;;
24090;SDS011;12272;52.426;17.100;2022-07-06T02:07:33;3.50;;;3.20;;
24090;SDS011;12272;52.426;17.100;2022-07-06T02:12:37;5.40;;;3.70;;
24090;SDS011;12272;52.426;17.100;2022-07-06T02:17:40;5.03;;;4.00;;
24090;SDS011;12272;52.426;17.100;2022-07-06T02:22:42;3.90;;;3.30;;
24090;SDS011;12272;52.426;17.100;2022-07-06T02:27:45;9.25;;;4.35;;
24090;SDS011;12272;52.426;17.100;2022-07-06T02:32:47;3.85;;;3.53;;
24090;SDS011;12272;52.426;17.100;2022-07-06T02:37:50;8.07;;;3.40;;
24090;SDS011;12272;52.426;17.100;2022-07-06T02:42:53;5.75;;;2.97;;
24090;SDS011;12272;52.426;17.100;2022-07-06T02:47:56;4.72;;;3.58;;
24090;SDS011;12272;52.426;17.100;2022-07-06T02:53:00;3.85;;;3.45;;
24090;SDS011;12272;52.426;17.100;2022-07-06T02:58:05;6.80;;;3.75;;
24090;SDS011;12272;52.426;17.100;2022-07-06T03:03:08;4.97;;;3.88;;
24090;SDS011;12272;52.426;17.100;2022-07-06T03:08:12;7.38;;;4.35;;
24090;SDS011;12272;52.426;17.100;2022-07-06T03:13:16;6.38;;;4.03;;
24090;SDS011;12272;52.426;17.100;2022-07-06T03:18:19;5.85;;;3.95;;
24090;SDS011;12272;52.426;17.100;2022-07-06T03:23:22;5.45;;;4.35;;
24090;SDS011;12272;52.426;17.100;2022-07-06T03:28:25;6.10;;;4.07;;
24090;SDS011;12272;52.426;17.100;2022-07-06T03:33:28;5.38;;;3.92;;
24090;SDS011;12272;52.426;17.100;2022-07-06T03:38:30;4.57;;;4.18;;
24090;SDS011;12272;52.426;17.100;2022-07-06T03:43:33;6.40;;;4.00;;
24090;SDS011;12272;52.426;17.100;2022-07-06T03:48:36;4.93;;;3.53;;
24090;SDS011;12272;52.426;17.100;2022-07-06T03:53:40;4.43;;;4.00;;
24090;SDS011;12272;52.426;17.100;2022-07-06T03:58:46;4.95;;;4.45;;
24090;SDS011;12272;52.426;17.100;2022-07-06T04:03:49;4.70;;;4.25;;
24090;SDS011;12272;52.426;17.100;2022-07-06T04:08:52;8.50;;;4.25;;
24090;SDS011;12272;52.426;17.100;2022-07-06T04:13:55;4.53;;;4.10;;
24090;SDS011;12272;52.426;17.100;2022-07-06T04:18:58;7.97;;;4.43;;
24090;SDS011;12272;52.426;17.100;2022-07-06T04:24:01;6.97;;;4.35;;
24090;SDS011;12272;52.426;17.100;2022-07-06T04:29:04;9.07;;;4.32;;
24090;SDS011;12272;52.426;17.100;2022-07-06T04:34:07;7.25;;;4.60;;
24090;SDS011;12272;52.426;17.100;2022-07-06T04:39:10;6.13;;;5.20;;
24090;SDS011;12272;52.426;17.100;2022-07-06T04:44:12;5.32;;;4.65;;
24090;SDS011;12272;52.426;17.100;2022-07-06T04:49:15;6.85;;;5.25;;
24090;SDS011;12272;52.426;17.100;2022-07-06T04:54:18;10.77;;;4.50;;
24090;SDS011;12272;52.426;17.100;2022-07-06T04:59:20;7.03;;;5.40;;
24090;SDS011;12272;52.426;17.100;2022-07-06T05:04:23;4.90;;;3.50;;
24090;SDS011;12272;52.426;17.100;2022-07-06T05:09:26;6.07;;;4.32;;
24090;SDS011;12272;52.426;17.100;2022-07-06T05:14:32;4.78;;;3.40;;
24090;SDS011;12272;52.426;17.100;2022-07-06T05:19:44;4.28;;;3.38;;
24090;SDS011;12272;52.426;17.100;2022-07-06T05:24:46;5.68;;;3.60;;
24090;SDS011;12272;52.426;17.100;2022-07-06T05:29:49;5.15;;;3.70;;
24090;SDS011;12272;52.426;17.100;2022-07-06T05:34:53;3.45;;;3.15;;
24090;SDS011;12272;52.426;17.100;2022-07-06T05:39:56;6.03;;;3.17;;
24090;SDS011;12272;52.426;17.100;2022-07-06T05:44:59;4.50;;;3.10;;
24090;SDS011;12272;52.426;17.100;2022-07-06T05:50:03;3.17;;;2.97;;
24090;SDS011;12272;52.426;17.100;2022-07-06T05:55:20;4.28;;;2.85;;
24090;SDS011;12272;52.426;17.100;2022-07-06T06:00:24;9.25;;;3.75;;
24090;SDS011;12272;52.426;17.100;2022-07-06T06:05:31;6.03;;;2.60;;
24090;SDS011;12272;52.426;17.100;2022-07-06T06:10:38;4.30;;;3.00;;
24090;SDS011;12272;52.426;17.100;2022-07-06T06:15:44;3.55;;;3.20;;
24090;SDS011;12272;52.426;17.100;2022-07-06T06:20:49;3.25;;;2.97;;
24090;SDS011;12272;52.426;17.100;2022-07-06T06:25:51;3.25;;;2.95;;
24090;SDS011;12272;52.426;17.100;2022-07-06T06:30:54;3.00;;;2.60;;
24090;SDS011;12272;52.426;17.100;2022-07-06T06:35:56;3.25;;;2.67;;
24090;SDS011;12272;52.426;17.100;2022-07-06T06:40:59;6.78;;;3.10;;
24090;SDS011;12272;52.426;17.100;2022-07-06T06:46:03;3.00;;;2.63;;
24090;SDS011;12272;52.426;17.100;2022-07-06T06:51:05;2.80;;;2.60;;
24090;SDS011;12272;52.426;17.100;2022-07-06T06:56:08;2.65;;;2.45;;
24090;SDS011;12272;52.426;17.100;2022-07-06T07:01:11;2.58;;;2.38;;
24090;SDS011;12272;52.426;17.100;2022-07-06T07:06:13;2.78;;;2.58;;
24090;SDS011;12272;52.426;17.100;2022-07-06T07:11:15;3.15;;;2.85;;
24090;SDS011;12272;52.426;17.100;2022-07-06T07:16:18;2.78;;;2.50;;
24090;SDS011;12272;52.426;17.100;2022-07-06T07:21:21;2.90;;;2.60;;
24090;SDS011;12272;52.426;17.100;2022-07-06T07:26:24;14.25;;;2.53;;
24090;SDS011;12272;52.426;17.100;2022-07-06T07:31:26;2.75;;;2.38;;
24090;SDS011;12272;52.426;17.100;2022-07-06T07:36:29;2.58;;;2.38;;
24090;SDS011;12272;52.426;17.100;2022-07-06T07:41:31;3.70;;;2.85;;
24090;SDS011;12272;52.426;17.100;2022-07-06T07:46:33;14.60;;;3.20;;
24090;SDS011;12272;52.426;17.100;2022-07-06T07:51:36;9.02;;;3.75;;
24090;SDS011;12272;52.426;17.100;2022-07-06T07:56:39;14.02;;;3.80;;
24090;SDS011;12272;52.426;17.100;2022-07-06T08:01:43;6.82;;;3.38;;
24090;SDS011;12272;52.426;17.100;2022-07-06T08:06:46;11.57;;;3.85;;
24090;SDS011;12272;52.426;17.100;2022-07-06T08:11:48;10.13;;;4.22;;
24090;SDS011;12272;52.426;17.100;2022-07-06T08:16:51;11.70;;;3.50;;
24090;SDS011;12272;52.426;17.100;2022-07-06T08:21:54;12.70;;;3.78;;
24090;SDS011;12272;52.426;17.100;2022-07-06T08:26:56;13.02;;;3.35;;
24090;SDS011;12272;52.426;17.100;2022-07-06T08:32:00;8.85;;;3.20;;
24090;SDS011;12272;52.426;17.100;2022-07-06T08:37:14;8.10;;;2.17;;
24090;SDS011;12272;52.426;17.100;2022-07-06T08:42:17;7.10;;;3.00;;
24090;SDS011;12272;52.426;17.100;2022-07-06T08:47:20;5.10;;;2.90;;
24090;SDS011;12272;52.426;17.100;2022-07-06T08:52:25;11.55;;;3.35;;
24090;SDS011;12272;52.426;17.100;2022-07-06T08:57:28;10.55;;;3.10;;
24090;SDS011;12272;52.426;17.100;2022-07-06T09:02:31;9.90;;;3.03;;
24090;SDS011;12272;52.426;17.100;2022-07-06T09:07:33;7.28;;;2.95;;
24090;SDS011;12272;52.426;17.100;2022-07-06T09:13:03;4.43;;;3.22;;
24090;SDS011;12272;52.426;17.100;2022-07-06T09:18:07;4.88;;;3.30;;
24090;SDS011;12272;52.426;17.100;2022-07-06T09:23:10;6.70;;;2.85;;
24090;SDS011;12272;52.426;17.100;2022-07-06T09:28:19;3.85;;;2.17;;
24090;SDS011;12272;52.426;17.100;2022-07-06T09:33:21;3.47;;;2.03;;
24090;SDS011;12272;52.426;17.100;2022-07-06T09:38:24;3.38;;;2.33;;
24090;SDS011;12272;52.426;17.100;2022-07-06T09:43:29;2.92;;;2.17;;
24090;SDS011;12272;52.426;17.100;2022-07-06T09:48:33;5.10;;;2.75;;
24090;SDS011;12272;52.426;17.100;2022-07-06T09:53:37;2.97;;;2.38;;
24090;SDS011;12272;52.426;17.100;2022-07-06T09:58:40;3.65;;;2.50;;
24090;SDS011;12272;52.426;17.100;2022-07-06T10:04:02;3.75;;;2.42;;
24090;SDS011;12272;52.426;17.100;2022-07-06T10:09:06;3.50;;;2.30;;
24090;SDS011;12272;52.426;17.100;2022-07-06T10:14:15;2.47;;;2.28;;
24090;SDS011;12272;52.426;17.100;2022-07-06T10:19:20;2.10;;;1.90;;
24090;SDS011;12272;52.426;17.100;2022-07-06T10:24:23;2.00;;;1.80;;
24090;SDS011;12272;52.426;17.100;2022-07-06T10:29:26;2.42;;;2.22;;
24090;SDS011;12272;52.426;17.100;2022-07-06T10:34:30;2.10;;;1.90;;
24090;SDS011;12272;52.426;17.100;2022-07-06T10:39:36;1.98;;;1.83;;
24090;SDS011;12272;52.426;17.100;2022-07-06T10:44:58;3.58;;;1.83;;
24090;SDS011;12272;52.426;17.100;2022-07-06T10:50:01;1.83;;;1.40;;
24090;SDS011;12272;52.426;17.100;2022-07-06T10:55:27;2.78;;;1.30;;
24090;SDS011;12272;52.426;17.100;2022-07-06T11:00:52;1.83;;;1.10;;
24090;SDS011;12272;52.426;17.100;2022-07-06T11:05:58;3.80;;;1.52;;
24090;SDS011;12272;52.426;17.100;2022-07-06T11:11:18;1.88;;;1.13;;
24090;SDS011;12272;52.426;17.100;2022-07-06T11:16:24;1.95;;;1.35;;
24090;SDS011;12272;52.426;17.100;2022-07-06T11:21:32;1.75;;;1.58;;
24090;SDS011;12272;52.426;17.100;2022-07-06T11:26:50;3.97;;;1.50;;
24090;SDS011;12272;52.426;17.100;2022-07-06T11:31:55;1.88;;;1.20;;
24090;SDS011;12272;52.426;17.100;2022-07-06T11:37:08;3.90;;;0.80;;
24090;SDS011;12272;52.426;17.100;2022-07-06T11:42:13;2.30;;;0.80;;
24090;SDS011;12272;52.426;17.100;2022-07-06T11:47:18;2.03;;;0.98;;
24090;SDS011;12272;52.426;17.100;2022-07-06T11:52:25;4.72;;;1.08;;
24090;SDS011;12272;52.426;17.100;2022-07-06T11:57:28;1.65;;;0.90;;
24090;SDS011;12272;52.426;17.100;2022-07-06T12:02:35;1.70;;;0.70;;
24090;SDS011;12272;52.426;17.100;2022-07-06T12:07:38;2.17;;;0.80;;
24090;SDS011;12272;52.426;17.100;2022-07-06T12:12:40;1.58;;;0.90;;
24090;SDS011;12272;52.426;17.100;2022-07-06T12:17:46;0.95;;;0.70;;
24090;SDS011;12272;52.426;17.100;2022-07-06T12:22:50;2.50;;;1.10;;
24090;SDS011;12272;52.426;17.100;2022-07-06T12:28:05;3.20;;;0.95;;
24090;SDS011;12272;52.426;17.100;2022-07-06T12:38:21;1.98;;;0.90;;
24090;SDS011;12272;52.426;17.100;2022-07-06T12:43:35;1.63;;;1.38;;
24090;SDS011;12272;52.426;17.100;2022-07-06T12:48:51;2.65;;;0.65;;
24090;SDS011;12272;52.426;17.100;2022-07-06T12:54:29;1.48;;;0.80;;
24090;SDS011;12272;52.426;17.100;2022-07-06T12:59:24;1.98;;;0.85;;
24090;SDS011;12272;52.426;17.100;2022-07-06T13:04:29;1.02;;;0.75;;
24090;SDS011;12272;52.426;17.100;2022-07-06T13:09:33;3.03;;;0.82;;
24090;SDS011;12272;52.426;17.100;2022-07-06T13:14:36;0.98;;;0.85;;
24090;SDS011;12272;52.426;17.100;2022-07-06T13:19:39;0.60;;;0.60;;
24090;SDS011;12272;52.426;17.100;2022-07-06T13:24:42;2.65;;;1.30;;
24090;SDS011;12272;52.426;17.100;2022-07-06T13:29:45;2.78;;;0.63;;
24090;SDS011;12272;52.426;17.100;2022-07-06T13:34:48;1.42;;;0.80;;
24090;SDS011;12272;52.426;17.100;2022-07-06T13:39:51;0.93;;;0.75;;
24090;SDS011;12272;52.426;17.100;2022-07-06T13:44:53;1.55;;;0.63;;
24090;SDS011;12272;52.426;17.100;2022-07-06T13:49:56;1.30;;;1.08;;
24090;SDS011;12272;52.426;17.100;2022-07-06T13:54:58;1.30;;;0.77;;
24090;SDS011;12272;52.426;17.100;2022-07-06T14:00:03;1.23;;;0.55;;
24090;SDS011;12272;52.426;17.100;2022-07-06T14:05:09;1.00;;;0.90;;
24090;SDS011;12272;52.426;17.100;2022-07-06T14:10:12;1.02;;;0.57;;
24090;SDS011;12272;52.426;17.100;2022-07-06T14:15:15;2.15;;;0.55;;
24090;SDS011;12272;52.426;17.100;2022-07-06T14:20:17;1.98;;;0.60;;
24090;SDS011;12272;52.426;17.100;2022-07-06T14:25:22;1.33;;;0.60;;
24090;SDS011;12272;52.426;17.100;2022-07-06T14:30:25;3.28;;;0.75;;
24090;SDS011;12272;52.426;17.100;2022-07-06T14:35:28;3.97;;;0.40;;
24090;SDS011;12272;52.426;17.100;2022-07-06T14:40:31;1.38;;;0.45;;
24090;SDS011;12272;52.426;17.100;2022-07-06T14:45:34;3.22;;;0.47;;
24090;SDS011;12272;52.426;17.100;2022-07-06T14:50:36;0.65;;;0.52;;
24090;SDS011;12272;52.426;17.100;2022-07-06T14:55:39;1.13;;;0.60;;
24090;SDS011;12272;52.426;17.100;2022-07-06T15:00:41;0.85;;;0.60;;
24090;SDS011;12272;52.426;17.100;2022-07-06T15:05:44;1.38;;;0.70;;
24090;SDS011;12272;52.426;17.100;2022-07-06T15:10:49;1.55;;;0.60;;
24090;SDS011;12272;52.426;17.100;2022-07-06T15:15:52;2.10;;;0.70;;
24090;SDS011;12272;52.426;17.100;2022-07-06T15:20:57;1.17;;;0.45;;
24090;SDS011;12272;52.426;17.100;2022-07-06T15:26:01;3.08;;;0.70;;
24090;SDS011;12272;52.426;17.100;2022-07-06T15:31:04;2.42;;;0.60;;
24090;SDS011;12272;52.426;17.100;2022-07-06T15:36:07;0.50;;;0.50;;
24090;SDS011;12272;52.426;17.100;2022-07-06T15:41:10;0.68;;;0.40;;
24090;SDS011;12272;52.426;17.100;2022-07-06T15:46:12;0.70;;;0.40;;
24090;SDS011;12272;52.426;17.100;2022-07-06T15:51:15;1.75;;;0.70;;
24090;SDS011;12272;52.426;17.100;2022-07-06T15:56:18;0.70;;;0.40;;
24090;SDS011;12272;52.426;17.100;2022-07-06T16:01:20;1.50;;;0.40;;
24090;SDS011;12272;52.426;17.100;2022-07-06T16:06:23;2.95;;;0.50;;
24090;SDS011;12272;52.426;17.100;2022-07-06T16:11:26;0.40;;;0.40;;
24090;SDS011;12272;52.426;17.100;2022-07-06T16:16:28;2.95;;;0.50;;
24090;SDS011;12272;52.426;17.100;2022-07-06T16:21:31;2.47;;;0.55;;
24090;SDS011;12272;52.426;17.100;2022-07-06T16:26:34;3.88;;;0.60;;
24090;SDS011;12272;52.426;17.100;2022-07-06T16:31:36;2.30;;;0.68;;
24090;SDS011;12272;52.426;17.100;2022-07-06T16:36:39;1.45;;;0.52;;
24090;SDS011;12272;52.426;17.100;2022-07-06T16:41:42;1.42;;;0.35;;
24090;SDS011;12272;52.426;17.100;2022-07-06T16:46:45;4.03;;;0.60;;
24090;SDS011;12272;52.426;17.100;2022-07-06T16:51:47;0.50;;;0.40;;
24090;SDS011;12272;52.426;17.100;2022-07-06T16:56:50;1.77;;;0.57;;
24090;SDS011;12272;52.426;17.100;2022-07-06T17:01:53;2.35;;;0.50;;
24090;SDS011;12272;52.426;17.100;2022-07-06T17:06:55;1.08;;;0.50;;
24090;SDS011;12272;52.426;17.100;2022-07-06T17:11:58;0.30;;;0.30;;
24090;SDS011;12272;52.426;17.100;2022-07-06T17:17:00;0.70;;;0.50;;
24090;SDS011;12272;52.426;17.100;2022-07-06T17:22:03;3.00;;;0.40;;
24090;SDS011;12272;52.426;17.100;2022-07-06T17:27:07;0.43;;;0.40;;
24090;SDS011;12272;52.426;17.100;2022-07-06T17:32:10;1.02;;;0.40;;
24090;SDS011;12272;52.426;17.100;2022-07-06T17:37:13;0.75;;;0.40;;
24090;SDS011;12272;52.426;17.100;2022-07-06T17:42:15;0.90;;;0.32;;
24090;SDS011;12272;52.426;17.100;2022-07-06T17:47:18;2.33;;;0.52;;
24090;SDS011;12272;52.426;17.100;2022-07-06T17:52:20;2.10;;;0.30;;
24090;SDS011;12272;52.426;17.100;2022-07-06T17:57:23;1.75;;;0.40;;
24090;SDS011;12272;52.426;17.100;2022-07-06T18:02:25;0.93;;;0.40;;
24090;SDS011;12272;52.426;17.100;2022-07-06T18:07:28;0.95;;;0.40;;
24090;SDS011;12272;52.426;17.100;2022-07-06T18:12:31;0.68;;;0.40;;
24090;SDS011;12272;52.426;17.100;2022-07-06T18:17:33;4.13;;;0.57;;
24090;SDS011;12272;52.426;17.100;2022-07-06T18:22:36;2.95;;;0.30;;
24090;SDS011;12272;52.426;17.100;2022-07-06T18:27:38;1.15;;;0.50;;
24090;SDS011;12272;52.426;17.100;2022-07-06T18:32:41;0.82;;;0.30;;
24090;SDS011;12272;52.426;17.100;2022-07-06T18:37:43;1.02;;;0.60;;
24090;SDS011;12272;52.426;17.100;2022-07-06T18:42:46;0.57;;;0.22;;
24090;SDS011;12272;52.426;17.100;2022-07-06T18:47:48;0.88;;;0.45;;
24090;SDS011;12272;52.426;17.100;2022-07-06T18:52:55;1.77;;;0.80;;
24090;SDS011;12272;52.426;17.100;2022-07-06T18:57:58;1.27;;;0.50;;
24090;SDS011;12272;52.426;17.100;2022-07-06T19:03:00;0.77;;;0.50;;
24090;SDS011;12272;52.426;17.100;2022-07-06T19:08:03;2.08;;;0.40;;
24090;SDS011;12272;52.426;17.100;2022-07-06T19:13:06;0.77;;;0.45;;
24090;SDS011;12272;52.426;17.100;2022-07-06T19:18:08;0.73;;;0.65;;
24090;SDS011;12272;52.426;17.100;2022-07-06T19:23:14;2.25;;;0.25;;
24090;SDS011;12272;52.426;17.100;2022-07-06T19:28:16;0.75;;;0.30;;
24090;SDS011;12272;52.426;17.100;2022-07-06T19:33:19;6.97;;;0.50;;
24090;SDS011;12272;52.426;17.100;2022-07-06T19:38:21;1.65;;;0.40;;
24090;SDS011;12272;52.426;17.100;2022-07-06T19:43:24;2.53;;;0.40;;
24090;SDS011;12272;52.426;17.100;2022-07-06T19:48:27;0.60;;;0.60;;
24090;SDS011;12272;52.426;17.100;2022-07-06T19:53:29;0.30;;;0.30;;
24090;SDS011;12272;52.426;17.100;2022-07-06T19:58:32;0.95;;;0.52;;
24090;SDS011;12272;52.426;17.100;2022-07-06T20:03:35;1.60;;;0.43;;
24090;SDS011;12272;52.426;17.100;2022-07-06T20:08:37;1.30;;;0.45;;
24090;SDS011;12272;52.426;17.100;2022-07-06T20:13:40;0.55;;;0.40;;
24090;SDS011;12272;52.426;17.100;2022-07-06T20:18:43;0.95;;;0.52;;
24090;SDS011;12272;52.426;17.100;2022-07-06T20:23:49;0.60;;;0.30;;
24090;SDS011;12272;52.426;17.100;2022-07-06T20:28:51;0.70;;;0.50;;
24090;SDS011;12272;52.426;17.100;2022-07-06T20:33:54;0.90;;;0.55;;
24090;SDS011;12272;52.426;17.100;2022-07-06T20:38:57;0.40;;;0.35;;
24090;SDS011;12272;52.426;17.100;2022-07-06T20:43:59;0.57;;;0.30;;
24090;SDS011;12272;52.426;17.100;2022-07-06T20:49:02;0.65;;;0.40;;
24090;SDS011;12272;52.426;17.100;2022-07-06T20:54:04;1.50;;;0.30;;
24090;SDS011;12272;52.426;17.100;2022-07-06T20:59:08;0.50;;;0.35;;
24090;SDS011;12272;52.426;17.100;2022-07-06T21:04:14;0.45;;;0.38;;
24090;SDS011;12272;52.426;17.100;2022-07-06T21:09:17;1.08;;;0.40;;
24090;SDS011;12272;52.426;17.100;2022-07-06T21:14:19;0.60;;;0.52;;
24090;SDS011;12272;52.426;17.100;2022-07-06T21:19:22;0.85;;;0.30;;
24090;SDS011;12272;52.426;17.100;2022-07-06T21:24:24;0.40;;;0.32;;
24090;SDS011;12272;52.426;17.100;2022-07-06T21:29:26;0.52;;;0.38;;
24090;SDS011;12272;52.426;17.100;2022-07-06T21:34:29;1.05;;;0.40;;
24090;SDS011;12272;52.426;17.100;2022-07-06T21:39:31;0.65;;;0.43;;
24090;SDS011;12272;52.426;17.100;2022-07-06T21:44:34;1.77;;;0.60;;
24090;SDS011;12272;52.426;17.100;2022-07-06T21:49:37;0.65;;;0.30;;
24090;SDS011;12272;52.426;17.100;2022-07-06T21:54:39;0.88;;;0.60;;
24090;SDS011;12272;52.426;17.100;2022-07-06T21:59:43;0.70;;;0.43;;
24090;SDS011;12272;52.426;17.100;2022-07-06T22:04:45;1.00;;;0.88;;
24090;SDS011;12272;52.426;17.100;2022-07-06T22:09:48;1.02;;;0.43;;
24090;SDS011;12272;52.426;17.100;2022-07-06T22:14:50;0.57;;;0.40;;
24090;SDS011;12272;52.426;17.100;2022-07-06T22:19:53;1.75;;;0.45;;
24090;SDS011;12272;52.426;17.100;2022-07-06T22:25:00;0.50;;;0.50;;
24090;SDS011;12272;52.426;17.100;2022-07-06T22:30:04;0.60;;;0.40;;
24090;SDS011;12272;52.426;17.100;2022-07-06T22:35:07;0.55;;;0.40;;
24090;SDS011;12272;52.426;17.100;2022-07-06T22:40:10;0.57;;;0.57;;
24090;SDS011;12272;52.426;17.100;2022-07-06T22:45:31;1.08;;;0.40;;
24090;SDS011;12272;52.426;17.100;2022-07-06T22:50:34;0.38;;;0.35;;
24090;SDS011;12272;52.426;17.100;2022-07-06T22:55:37;1.25;;;0.70;;
24090;SDS011;12272;52.426;17.100;2022-07-06T23:00:39;0.70;;;0.50;;
24090;SDS011;12272;52.426;17.100;2022-07-06T23:05:42;1.52;;;0.60;;
24090;SDS011;12272;52.426;17.100;2022-07-06T23:10:44;1.92;;;0.50;;
24090;SDS011;12272;52.426;17.100;2022-07-06T23:15:47;0.82;;;0.60;;
24090;SDS011;12272;52.426;17.100;2022-07-06T23:20:51;0.52;;;0.40;;
24090;SDS011;12272;52.426;17.100;2022-07-06T23:25:54;0.40;;;0.40;;
24090;SDS011;12272;52.426;17.100;2022-07-06T23:30:56;0.43;;;0.40;;
24090;SDS011;12272;52.426;17.100;2022-07-06T23:35:59;0.90;;;0.52;;
24090;SDS011;12272;52.426;17.100;2022-07-06T23:41:02;1.73;;;0.77;;
24090;SDS011;12272;52.426;17.100;2022-07-06T23:46:05;0.50;;;0.40;;
24090;SDS011;12272;52.426;17.100;2022-07-06T23:51:08;0.98;;;0.50;;
24090;SDS011;12272;52.426;17.100;2022-07-06T23:56:10;1.02;;;0.70;;
